Time;durP1;ratioP1;P1;durP2;ratioP2;P2;SDS_P1;SDS_P2;PMS_P1;PMS_P2;Temp;Humidity;BMP_temperature;BMP_pressure;BME280_temperature;BME280_humidity;BME280_pressure;Samples;Min_cycle;Max_cycle;Signal;HPM_P1;HPM_P2
2024/02/27 00:00:06;;;;;;;6.07;5.55;;;;;;;;;;5037778;28;20202;-92
2024/02/27 00:02:34;;;;;;;6.95;5.45;;;;;;;;;;5037120;28;20187;-91
2024/02/27 00:05:02;;;;;;;5.53;5.03;;;;;;;;;;5037876;28;20203;-94
2024/02/27 00:07:30;;;;;;;5.65;5.15;;;;;;;;;;5037745;28;20187;-95
2024/02/27 00:09:58;;;;;;;5.80;5.28;;;;;;;;;;5038099;28;20179;-94
2024/02/27 00:12:26;;;;;;;5.75;5.25;;;;;;;;;;5037747;28;20199;-94
2024/02/27 00:14:55;;;;;;;5.85;5.25;;;;;;;;;;5037876;28;20202;-94
2024/02/27 00:17:23;;;;;;;4.95;4.40;;;;;;;;;;5037943;28;20201;-94
2024/02/27 00:19:51;;;;;;;5.78;5.03;;;;;;;;;;5037815;28;20199;-95
2024/02/27 00:22:19;;;;;;;4.88;4.47;;;;;;;;;;5037658;28;20229;-95
2024/02/27 00:24:46;;;;;;;4.70;4.30;;;;;;;;;;5037617;28;20241;-95
2024/02/27 00:27:14;;;;;;;5.20;4.72;;;;;;;;;;5037594;28;20187;-96
2024/02/27 00:29:41;;;;;;;4.68;4.22;;;;;;;;;;5037839;28;20179;-95
2024/02/27 00:32:10;;;;;;;4.28;3.78;;;;;;;;;;5037452;28;20191;-95
2024/02/27 00:34:38;;;;;;;4.40;3.70;;;;;;;;;;5037490;28;20218;-94
2024/02/27 00:37:06;;;;;;;3.90;3.53;;;;;;;;;;5039333;28;20187;-94
2024/02/27 00:39:34;;;;;;;6.10;3.35;;;;;;;;;;5043167;28;20271;-95
2024/02/27 00:42:03;;;;;;;3.85;3.50;;;;;;;;;;5043970;28;20217;-94
2024/02/27 00:44:31;;;;;;;3.85;3.20;;;;;;;;;;5043383;28;20517;-91
2024/02/27 00:46:58;;;;;;;3.40;3.10;;;;;;;;;;5043783;28;20207;-94
2024/02/27 00:49:26;;;;;;;3.70;3.40;;;;;;;;;;5042907;28;20178;-94
2024/02/27 00:51:54;;;;;;;3.42;2.90;;;;;;;;;;5043314;28;20187;-94
2024/02/27 00:54:21;;;;;;;3.35;3.10;;;;;;;;;;5043704;28;20186;-94
2024/02/27 00:56:49;;;;;;;5.18;3.20;;;;;;;;;;5042596;28;20225;-95
2024/02/27 00:59:17;;;;;;;3.35;3.05;;;;;;;;;;5042808;28;20195;-95
2024/02/27 01:01:44;;;;;;;3.85;3.55;;;;;;;;;;5041674;28;20203;-93
2024/02/27 01:04:12;;;;;;;3.17;2.88;;;;;;;;;;5041848;28;20242;-93
2024/02/27 01:06:41;;;;;;;3.65;3.35;;;;;;;;;;5042156;28;20206;-93
2024/02/27 01:09:09;;;;;;;4.53;3.53;;;;;;;;;;5043775;28;20191;-91
2024/02/27 01:11:37;;;;;;;3.47;3.00;;;;;;;;;;5042866;28;20242;-93
2024/02/27 01:14:04;;;;;;;3.33;3.03;;;;;;;;;;5043538;28;20214;-93
2024/02/27 01:16:32;;;;;;;4.13;3.83;;;;;;;;;;5043142;28;20218;-91
2024/02/27 01:18:59;;;;;;;3.38;3.08;;;;;;;;;;5043448;28;20206;-91
2024/02/27 01:21:27;;;;;;;3.45;3.20;;;;;;;;;;5043253;28;20179;-90
2024/02/27 01:23:56;;;;;;;3.58;3.30;;;;;;;;;;5042647;28;20226;-94
2024/02/27 01:26:23;;;;;;;3.05;2.85;;;;;;;;;;5042771;28;20223;-94
2024/02/27 01:28:51;;;;;;;4.78;3.15;;;;;;;;;;5042833;28;20203;-94
2024/02/27 01:31:19;;;;;;;4.35;3.97;;;;;;;;;;5042660;28;20203;-95
2024/02/27 01:33:47;;;;;;;4.13;3.45;;;;;;;;;;5042854;28;20187;-93
2024/02/27 01:36:15;;;;;;;4.05;3.03;;;;;;;;;;5042964;28;20210;-94
2024/02/27 01:38:42;;;;;;;3.83;3.45;;;;;;;;;;5041850;28;20206;-93
2024/02/27 01:41:11;;;;;;;4.10;3.67;;;;;;;;;;5042679;28;20195;-94
2024/02/27 01:43:39;;;;;;;3.92;3.47;;;;;;;;;;5043534;28;20226;-95
2024/02/27 01:46:12;;;;;;;4.97;3.50;;;;;;;;;;5042903;28;20206;-94
2024/02/27 01:48:40;;;;;;;3.67;3.05;;;;;;;;;;5039591;28;20203;-94
2024/02/27 01:51:08;;;;;;;3.85;3.42;;;;;;;;;;5038843;28;20191;-95
2024/02/27 01:53:36;;;;;;;3.80;3.40;;;;;;;;;;5039205;28;20199;-94
2024/02/27 01:56:04;;;;;;;3.83;3.50;;;;;;;;;;5039080;28;20230;-94
2024/02/27 01:58:34;;;;;;;3.72;3.42;;;;;;;;;;5039491;28;20211;-94
2024/02/27 02:01:02;;;;;;;4.57;3.88;;;;;;;;;;5040207;28;20187;-93
2024/02/27 02:03:33;;;;;;;4.80;3.72;;;;;;;;;;5039583;28;20198;-94
2024/02/27 02:06:02;;;;;;;3.70;3.40;;;;;;;;;;5038448;28;20219;-94
2024/02/27 02:08:30;;;;;;;3.78;3.47;;;;;;;;;;5038228;28;20187;-94
2024/02/27 02:10:58;;;;;;;5.13;3.63;;;;;;;;;;5039524;28;20207;-94
2024/02/27 02:13:25;;;;;;;3.80;3.50;;;;;;;;;;5038300;28;20195;-94
2024/02/27 02:15:55;;;;;;;4.45;3.47;;;;;;;;;;5039897;28;20214;-93
2024/02/27 02:18:22;;;;;;;3.95;3.60;;;;;;;;;;5038187;28;20214;-94
2024/02/27 02:20:51;;;;;;;3.55;3.25;;;;;;;;;;5037830;28;20203;-93
2024/02/27 02:23:19;;;;;;;3.72;3.42;;;;;;;;;;5037451;28;20206;-94
2024/02/27 02:25:49;;;;;;;4.13;3.83;;;;;;;;;;5036856;28;20230;-94
2024/02/27 02:28:16;;;;;;;4.03;3.70;;;;;;;;;;5036280;28;20187;-92
2024/02/27 02:30:44;;;;;;;4.00;3.60;;;;;;;;;;5037983;28;20210;-93
2024/02/27 02:33:13;;;;;;;4.53;3.50;;;;;;;;;;5036284;28;20198;-94
2024/02/27 02:35:44;;;;;;;3.97;3.58;;;;;;;;;;5034594;28;20223;-94
2024/02/27 02:38:14;;;;;;;3.05;2.85;;;;;;;;;;5037053;28;20191;-94
2024/02/27 02:40:41;;;;;;;4.25;3.85;;;;;;;;;;5035572;28;20187;-93
2024/02/27 02:43:09;;;;;;;4.45;3.80;;;;;;;;;;5038797;28;20202;-93
2024/02/27 02:45:36;;;;;;;4.05;3.65;;;;;;;;;;5037583;28;20226;-94
2024/02/27 02:48:04;;;;;;;4.10;3.78;;;;;;;;;;5035576;28;20210;-94
2024/02/27 02:50:32;;;;;;;3.75;3.20;;;;;;;;;;5035138;28;20210;-93
2024/02/27 02:53:00;;;;;;;3.72;3.42;;;;;;;;;;5034767;28;20207;-93
2024/02/27 02:55:29;;;;;;;4.07;3.67;;;;;;;;;;5033623;28;20210;-93
2024/02/27 02:57:56;;;;;;;4.20;3.70;;;;;;;;;;5032354;28;20234;-93
2024/02/27 03:00:24;;;;;;;4.45;4.05;;;;;;;;;;5034927;28;20190;-94
2024/02/27 03:02:52;;;;;;;4.00;3.65;;;;;;;;;;5038257;28;20191;-94
2024/02/27 03:05:19;;;;;;;4.65;4.25;;;;;;;;;;5036674;28;20227;-93
2024/02/27 03:07:47;;;;;;;5.22;3.92;;;;;;;;;;5036778;28;20211;-94
2024/02/27 03:10:14;;;;;;;4.28;3.97;;;;;;;;;;5035523;28;20226;-93
2024/02/27 03:12:45;;;;;;;4.10;3.70;;;;;;;;;;5034740;28;20191;-93
2024/02/27 03:15:13;;;;;;;4.20;3.47;;;;;;;;;;5034683;28;20223;-93
2024/02/27 03:17:40;;;;;;;3.78;3.47;;;;;;;;;;5036121;28;20202;-94
2024/02/27 03:20:10;;;;;;;4.07;3.78;;;;;;;;;;5034297;28;20207;-94
2024/02/27 03:22:37;;;;;;;3.70;3.00;;;;;;;;;;5034379;28;20226;-93
2024/02/27 03:25:06;;;;;;;3.83;3.53;;;;;;;;;;5033260;28;20241;-94
2024/02/27 03:27:34;;;;;;;4.05;3.75;;;;;;;;;;5034064;28;20218;-94
2024/02/27 03:30:03;;;;;;;3.67;3.33;;;;;;;;;;5035119;28;20193;-92
2024/02/27 03:32:31;;;;;;;4.40;4.03;;;;;;;;;;5038502;28;20183;-93
2024/02/27 03:34:58;;;;;;;3.63;3.40;;;;;;;;;;5035749;28;20226;-93
2024/02/27 03:37:26;;;;;;;4.05;3.53;;;;;;;;;;5033230;28;20226;-93
2024/02/27 03:39:53;;;;;;;4.13;3.72;;;;;;;;;;5034463;28;20207;-94
2024/02/27 03:42:21;;;;;;;3.60;3.30;;;;;;;;;;5038273;28;20183;-94
2024/02/27 03:44:48;;;;;;;4.40;4.00;;;;;;;;;;5037248;28;20243;-93
2024/02/27 03:47:17;;;;;;;4.65;3.67;;;;;;;;;;5036698;28;20199;-94
2024/02/27 03:49:45;;;;;;;5.22;4.80;;;;;;;;;;5035947;28;20183;-93
2024/02/27 03:52:13;;;;;;;5.40;4.90;;;;;;;;;;5034664;28;20187;-94
2024/02/27 03:54:40;;;;;;;4.60;4.18;;;;;;;;;;5035039;28;20203;-94
2024/02/27 03:57:10;;;;;;;4.38;3.97;;;;;;;;;;5037301;28;20202;-94
2024/02/27 03:59:37;;;;;;;5.07;4.28;;;;;;;;;;5038067;28;20274;-93
2024/02/27 04:02:06;;;;;;;4.50;4.10;;;;;;;;;;5037750;28;20191;-94
2024/02/27 04:04:35;;;;;;;5.05;4.35;;;;;;;;;;5037886;28;20195;-93
2024/02/27 04:07:03;;;;;;;4.05;3.55;;;;;;;;;;5037916;28;20234;-93
2024/02/27 04:09:31;;;;;;;6.15;3.53;;;;;;;;;;5037986;28;20198;-93
2024/02/27 04:11:58;;;;;;;5.20;4.25;;;;;;;;;;5037121;28;20179;-93
2024/02/27 04:14:26;;;;;;;4.90;4.40;;;;;;;;;;5036347;28;20194;-94
2024/02/27 04:16:54;;;;;;;4.32;4.03;;;;;;;;;;5035452;28;20505;-93
2024/02/27 04:19:21;;;;;;;4.78;4.35;;;;;;;;;;5034485;28;20199;-93
2024/02/27 04:21:50;;;;;;;4.07;3.78;;;;;;;;;;5034723;28;20210;-94
2024/02/27 04:24:18;;;;;;;4.32;3.92;;;;;;;;;;5034347;28;20199;-92
2024/02/27 04:26:45;;;;;;;5.53;5.03;;;;;;;;;;5035981;28;20238;-93
2024/02/27 04:29:13;;;;;;;4.88;4.38;;;;;;;;;;5036107;28;20195;-93
2024/02/27 04:31:46;;;;;;;4.60;4.22;;;;;;;;;;5034489;28;20218;-93
2024/02/27 04:34:15;;;;;;;4.93;4.43;;;;;;;;;;5035892;28;20194;-93
2024/02/27 04:36:46;;;;;;;5.03;4.47;;;;;;;;;;5034709;28;20222;-93
2024/02/27 04:39:16;;;;;;;5.28;4.78;;;;;;;;;;5030885;28;20284;-93
2024/02/27 04:41:44;;;;;;;5.95;5.35;;;;;;;;;;5029985;28;20199;-93
2024/02/27 04:44:12;;;;;;;6.10;5.50;;;;;;;;;;5032795;28;20226;-93
2024/02/27 04:46:40;;;;;;;6.32;5.68;;;;;;;;;;5033021;28;20231;-93
2024/02/27 04:49:07;;;;;;;5.43;5.00;;;;;;;;;;5032158;28;20215;-94
2024/02/27 04:51:35;;;;;;;6.95;5.40;;;;;;;;;;5034072;28;20227;-94
2024/02/27 04:54:03;;;;;;;6.20;5.45;;;;;;;;;;5032565;28;20218;-93
2024/02/27 04:56:32;;;;;;;8.73;5.65;;;;;;;;;;5032771;28;20298;-93
2024/02/27 04:59:00;;;;;;;6.45;5.85;;;;;;;;;;5032343;28;20697;-92
2024/02/27 05:01:28;;;;;;;6.78;6.07;;;;;;;;;;5034138;28;20266;-94
2024/02/27 05:03:55;;;;;;;6.82;6.22;;;;;;;;;;5034130;28;20203;-93
2024/02/27 05:06:23;;;;;;;6.50;5.90;;;;;;;;;;5031051;28;20242;-93
2024/02/27 05:08:51;;;;;;;6.00;5.45;;;;;;;;;;5031810;28;20198;-93
2024/02/27 05:11:18;;;;;;;7.00;6.30;;;;;;;;;;5034632;28;20205;-93
2024/02/27 05:13:48;;;;;;;9.02;6.75;;;;;;;;;;5031948;28;20190;-93
2024/02/27 05:16:16;;;;;;;6.47;5.88;;;;;;;;;;5032352;28;20211;-93
2024/02/27 05:18:44;;;;;;;7.65;6.88;;;;;;;;;;5033014;28;20187;-94
2024/02/27 05:21:12;;;;;;;6.85;6.25;;;;;;;;;;5031632;28;20187;-93
2024/02/27 05:23:39;;;;;;;7.60;6.80;;;;;;;;;;5030180;28;20210;-94
2024/02/27 05:26:07;;;;;;;9.05;7.13;;;;;;;;;;5034195;28;20238;-93
2024/02/27 05:28:36;;;;;;;8.27;6.75;;;;;;;;;;5036573;28;20195;-93
2024/02/27 05:31:24;;;;;;;7.05;6.35;;;;;;;;;;5037452;28;20203;-93
2024/02/27 05:33:52;;;;;;;8.38;7.57;;;;;;;;;;5036198;28;20198;-93
2024/02/27 05:36:19;;;;;;;7.63;6.93;;;;;;;;;;5033761;28;20238;-93
2024/02/27 05:38:47;;;;;;;9.10;8.20;;;;;;;;;;5031528;28;20202;-94
2024/02/27 05:41:15;;;;;;;8.25;7.45;;;;;;;;;;5029846;28;20293;-94
2024/02/27 05:43:43;;;;;;;7.78;7.00;;;;;;;;;;5036589;28;20215;-93
2024/02/27 05:46:11;;;;;;;9.18;8.07;;;;;;;;;;5033625;28;20250;-94
2024/02/27 05:48:41;;;;;;;7.90;7.10;;;;;;;;;;5037616;28;20230;-93
2024/02/27 05:51:10;;;;;;;9.95;8.95;;;;;;;;;;5038755;28;20203;-92
2024/02/27 05:53:38;;;;;;;9.63;8.20;;;;;;;;;;5039361;28;20191;-93
2024/02/27 05:56:06;;;;;;;9.75;8.82;;;;;;;;;;5050871;22;20715;-90
2024/02/27 05:58:34;;;;;;;8.45;7.28;;;;;;;;;;5024489;28;20230;-91
2024/02/27 06:01:02;;;;;;;9.40;7.90;;;;;;;;;;5016697;28;20286;-91
2024/02/27 06:03:31;;;;;;;9.73;8.70;;;;;;;;;;5015026;28;20199;-90
2024/02/27 06:06:00;;;;;;;9.77;8.85;;;;;;;;;;5015152;28;20743;-91
2024/02/27 06:08:27;;;;;;;8.75;7.80;;;;;;;;;;5015073;28;20231;-91
2024/02/27 06:10:55;;;;;;;9.40;8.50;;;;;;;;;;5015196;28;20290;-90
2024/02/27 06:13:22;;;;;;;10.15;8.32;;;;;;;;;;5014917;28;20681;-91
2024/02/27 06:15:51;;;;;;;9.20;8.20;;;;;;;;;;5015023;28;20230;-90
2024/02/27 06:18:18;;;;;;;11.30;9.55;;;;;;;;;;5015181;28;20260;-91
2024/02/27 06:23:32;;;;;;;10.40;9.30;;;;;;;;;;5015455;28;20185;-91
2024/02/27 06:26:00;;;;;;;10.95;9.85;;;;;;;;;;5015076;28;20233;-90
2024/02/27 06:28:27;;;;;;;14.73;10.52;;;;;;;;;;5014646;28;20628;-91
2024/02/27 06:30:55;;;;;;;12.32;9.75;;;;;;;;;;5015206;28;20213;-90
2024/02/27 06:33:23;;;;;;;11.85;9.95;;;;;;;;;;5015157;28;20282;-90
2024/02/27 06:35:52;;;;;;;12.00;10.38;;;;;;;;;;5018837;28;20284;-92
2024/02/27 06:38:19;;;;;;;10.63;9.52;;;;;;;;;;5038543;28;20203;-92
2024/02/27 06:40:47;;;;;;;13.32;10.27;;;;;;;;;;5039497;28;20187;-91
2024/02/27 06:43:15;;;;;;;11.85;10.63;;;;;;;;;;5039633;28;20194;-91
2024/02/27 06:45:42;;;;;;;12.68;11.38;;;;;;;;;;5039578;28;20206;-92
2024/02/27 06:48:13;;;;;;;11.95;10.57;;;;;;;;;;5032752;28;20254;-91
2024/02/27 06:50:40;;;;;;;13.52;12.15;;;;;;;;;;5015171;28;20207;-90
2024/02/27 06:53:09;;;;;;;13.00;11.70;;;;;;;;;;5015186;28;20290;-90
2024/02/27 06:55:37;;;;;;;13.15;11.57;;;;;;;;;;5017658;28;20318;-91
2024/02/27 06:58:05;;;;;;;13.52;11.80;;;;;;;;;;5014991;28;20203;-90
2024/02/27 07:00:33;;;;;;;13.77;11.95;;;;;;;;;;5014384;28;20210;-91
2024/02/27 07:03:00;;;;;;;13.63;12.20;;;;;;;;;;5014123;28;20286;-90
2024/02/27 07:05:29;;;;;;;13.88;12.02;;;;;;;;;;5014563;28;20223;-90
2024/02/27 07:07:56;;;;;;;12.85;11.05;;;;;;;;;;5013739;28;20716;-90
2024/02/27 07:10:25;;;;;;;15.40;13.25;;;;;;;;;;5014128;28;20294;-90
2024/02/27 07:12:53;;;;;;;14.07;11.88;;;;;;;;;;5014130;28;20203;-91
2024/02/27 07:15:22;;;;;;;14.15;12.35;;;;;;;;;;5013983;28;20314;-90
2024/02/27 07:17:49;;;;;;;13.50;12.07;;;;;;;;;;5014159;28;20218;-90
2024/02/27 07:20:18;;;;;;;14.23;11.13;;;;;;;;;;5013993;28;20294;-90
2024/02/27 07:22:47;;;;;;;14.38;11.35;;;;;;;;;;5013710;28;20198;-91
2024/02/27 07:25:15;;;;;;;15.65;11.30;;;;;;;;;;5013843;28;20635;-91
2024/02/27 07:27:47;;;;;;;14.55;11.50;;;;;;;;;;5013629;28;20219;-91
2024/02/27 07:30:16;;;;;;;13.27;11.57;;;;;;;;;;5014421;28;20198;-91
2024/02/27 07:32:44;;;;;;;16.48;12.13;;;;;;;;;;5013664;28;20207;-91
2024/02/27 07:35:12;;;;;;;12.45;11.23;;;;;;;;;;5013689;28;20669;-91
2024/02/27 07:37:40;;;;;;;17.05;12.80;;;;;;;;;;5013519;28;20272;-91
2024/02/27 07:40:10;;;;;;;12.25;10.98;;;;;;;;;;5013635;28;20712;-91
2024/02/27 07:42:37;;;;;;;13.18;11.43;;;;;;;;;;5013557;28;20290;-91
2024/02/27 07:45:08;;;;;;;13.55;11.48;;;;;;;;;;5013398;28;20650;-90
2024/02/27 07:47:35;;;;;;;15.10;11.63;;;;;;;;;;5012682;28;20219;-91
2024/02/27 07:50:04;;;;;;;11.88;10.60;;;;;;;;;;5013858;28;20217;-92
2024/02/27 07:52:31;;;;;;;13.75;11.02;;;;;;;;;;5013237;28;20222;-90
2024/02/27 07:54:59;;;;;;;13.40;11.57;;;;;;;;;;5012976;28;20239;-92
2024/02/27 07:57:26;;;;;;;13.25;11.85;;;;;;;;;;5013552;28;20230;-92
2024/02/27 07:59:54;;;;;;;14.52;11.82;;;;;;;;;;5013310;28;20725;-91
2024/02/27 08:02:24;;;;;;;14.32;12.18;;;;;;;;;;5017231;28;20225;-90
2024/02/27 08:04:51;;;;;;;12.27;10.90;;;;;;;;;;5035443;28;20183;-89
2024/02/27 08:07:19;;;;;;;13.55;11.95;;;;;;;;;;5037797;28;20198;-91
2024/02/27 08:09:46;;;;;;;15.07;11.65;;;;;;;;;;5038079;28;20206;-92
2024/02/27 08:12:14;;;;;;;14.57;12.18;;;;;;;;;;5024692;28;20286;-90
2024/02/27 08:14:42;;;;;;;13.70;11.95;;;;;;;;;;5013858;28;20241;-90
2024/02/27 08:17:10;;;;;;;13.65;12.27;;;;;;;;;;5013372;28;20656;-91
2024/02/27 08:19:41;;;;;;;13.75;11.65;;;;;;;;;;5013472;28;20207;-90
2024/02/27 08:22:08;;;;;;;15.52;12.10;;;;;;;;;;5012771;28;20211;-90
2024/02/27 08:24:36;;;;;;;15.98;12.15;;;;;;;;;;5012849;28;20286;-90
2024/02/27 08:27:04;;;;;;;14.10;12.10;;;;;;;;;;5012945;28;20302;-91
2024/02/27 08:29:31;;;;;;;11.95;10.52;;;;;;;;;;5012620;28;20689;-90
2024/02/27 08:31:59;;;;;;;12.90;11.50;;;;;;;;;;5012742;28;20230;-91
2024/02/27 08:34:26;;;;;;;14.82;12.77;;;;;;;;;;5012940;28;20310;-91
2024/02/27 08:36:56;;;;;;;14.07;12.55;;;;;;;;;;5012502;28;20309;-91
2024/02/27 08:39:23;;;;;;;13.45;11.80;;;;;;;;;;5012800;28;20197;-91
2024/02/27 08:41:51;;;;;;;15.05;11.73;;;;;;;;;;5012595;28;20622;-91
2024/02/27 08:44:19;;;;;;;12.18;10.85;;;;;;;;;;5012618;28;20723;-91
2024/02/27 08:46:46;;;;;;;12.90;10.77;;;;;;;;;;5012725;28;20305;-91
2024/02/27 08:49:14;;;;;;;14.05;11.80;;;;;;;;;;5012441;28;20310;-91
2024/02/27 08:51:42;;;;;;;14.50;11.90;;;;;;;;;;5012619;28;20234;-90
2024/02/27 08:54:11;;;;;;;17.92;12.75;;;;;;;;;;5012824;28;20217;-90
2024/02/27 08:56:39;;;;;;;16.52;13.43;;;;;;;;;;5012439;28;20777;-90
2024/02/27 08:59:07;;;;;;;16.08;13.65;;;;;;;;;;5017509;28;20703;-90
2024/02/27 09:01:34;;;;;;;14.18;12.68;;;;;;;;;;5016501;28;20199;-90
2024/02/27 09:04:02;;;;;;;12.63;11.30;;;;;;;;;;5016928;28;20282;-90
2024/02/27 09:06:29;;;;;;;15.07;12.73;;;;;;;;;;5016476;28;20313;-90
2024/02/27 09:08:57;;;;;;;14.07;11.25;;;;;;;;;;5016479;28;20712;-92
2024/02/27 09:11:26;;;;;;;15.00;13.27;;;;;;;;;;5026880;28;20222;-91
2024/02/27 09:13:54;;;;;;;12.70;10.82;;;;;;;;;;5018253;28;20211;-91
2024/02/27 09:16:21;;;;;;;13.13;11.38;;;;;;;;;;5023597;28;20219;-90
2024/02/27 09:18:49;;;;;;;12.52;11.23;;;;;;;;;;5016174;28;20217;-90
2024/02/27 09:21:18;;;;;;;11.82;10.20;;;;;;;;;;5016376;28;20294;-90
2024/02/27 09:23:45;;;;;;;13.82;10.95;;;;;;;;;;5016047;28;20657;-91
2024/02/27 09:26:13;;;;;;;14.23;11.57;;;;;;;;;;5016117;28;20239;-91
2024/02/27 09:28:42;;;;;;;12.73;10.93;;;;;;;;;;5016086;28;20314;-91
2024/02/27 09:31:10;;;;;;;12.93;10.63;;;;;;;;;;5015800;28;20692;-90
2024/02/27 09:33:37;;;;;;;13.85;12.35;;;;;;;;;;5015813;28;20223;-91
2024/02/27 09:36:06;;;;;;;12.90;11.13;;;;;;;;;;5016043;28;20223;-91
2024/02/27 09:38:33;;;;;;;13.80;12.30;;;;;;;;;;5015898;28;20676;-90
2024/02/27 09:41:02;;;;;;;13.77;11.50;;;;;;;;;;5015932;28;20282;-91
2024/02/27 09:43:32;;;;;;;16.20;12.38;;;;;;;;;;5018058;28;20209;-91
2024/02/27 09:46:02;;;;;;;13.15;11.18;;;;;;;;;;5015658;28;20588;-90
2024/02/27 09:48:31;;;;;;;11.90;10.73;;;;;;;;;;5015485;28;20222;-91
2024/02/27 09:50:59;;;;;;;13.48;11.63;;;;;;;;;;5015491;28;20294;-90
2024/02/27 09:53:27;;;;;;;13.40;12.05;;;;;;;;;;5015071;28;20201;-90
2024/02/27 09:55:56;;;;;;;14.27;12.38;;;;;;;;;;5015502;28;20728;-90
2024/02/27 09:58:23;;;;;;;11.88;10.68;;;;;;;;;;5015568;28;20286;-91
2024/02/27 10:00:52;;;;;;;12.25;10.95;;;;;;;;;;5015571;28;20646;-91
2024/02/27 10:03:23;;;;;;;13.55;11.68;;;;;;;;;;5015922;28;20290;-91
2024/02/27 10:05:50;;;;;;;11.27;10.15;;;;;;;;;;5015176;28;20251;-90
2024/02/27 10:08:24;;;;;;;12.80;11.07;;;;;;;;;;5015469;28;20287;-90
2024/02/27 10:10:52;;;;;;;13.27;11.82;;;;;;;;;;5015088;28;20203;-91
2024/02/27 10:13:20;;;;;;;13.45;11.05;;;;;;;;;;5015060;28;20290;-91
2024/02/27 10:15:48;;;;;;;13.68;12.20;;;;;;;;;;5015047;28;20658;-91
2024/02/27 10:18:16;;;;;;;11.27;10.15;;;;;;;;;;5015328;28;20227;-91
2024/02/27 10:20:45;;;;;;;12.55;10.57;;;;;;;;;;5015350;28;20282;-91
2024/02/27 10:23:13;;;;;;;12.05;10.75;;;;;;;;;;5014869;28;20634;-91
2024/02/27 10:25:40;;;;;;;11.88;10.68;;;;;;;;;;5015057;28;20246;-91
2024/02/27 10:28:09;;;;;;;12.13;10.88;;;;;;;;;;5015402;28;20643;-92
2024/02/27 10:30:37;;;;;;;11.63;10.43;;;;;;;;;;5014561;28;20293;-91
2024/02/27 10:33:11;;;;;;;10.38;9.27;;;;;;;;;;5017379;28;20294;-91
2024/02/27 10:35:38;;;;;;;10.63;9.13;;;;;;;;;;5015206;28;20281;-92
2024/02/27 10:38:19;;;;;;;9.82;8.85;;;;;;;;;;5014703;28;20286;-91
2024/02/27 10:40:47;;;;;;;10.32;9.27;;;;;;;;;;5014705;28;20202;-91
2024/02/27 10:43:15;;;;;;;9.80;8.65;;;;;;;;;;5014460;28;20286;-90
2024/02/27 10:45:42;;;;;;;10.27;9.27;;;;;;;;;;5014582;28;20302;-91
2024/02/27 10:48:11;;;;;;;10.88;9.77;;;;;;;;;;5015508;28;20302;-91
2024/02/27 10:50:38;;;;;;;13.27;10.50;;;;;;;;;;5014359;28;20711;-92
2024/02/27 10:53:06;;;;;;;11.00;8.40;;;;;;;;;;5014743;28;20294;-92
2024/02/27 10:55:37;;;;;;;11.38;9.70;;;;;;;;;;5014845;28;20235;-92
2024/02/27 10:58:05;;;;;;;8.70;7.80;;;;;;;;;;5014673;28;20237;-91
2024/02/27 11:00:34;;;;;;;10.30;8.75;;;;;;;;;;5014634;28;20226;-90
2024/02/27 11:03:05;;;;;;;9.75;8.75;;;;;;;;;;5013991;28;20668;-90
2024/02/27 11:05:34;;;;;;;12.77;9.98;;;;;;;;;;5014175;28;20223;-91
2024/02/27 11:08:02;;;;;;;8.95;7.75;;;;;;;;;;5014322;28;20286;-90
2024/02/27 11:10:31;;;;;;;9.50;8.52;;;;;;;;;;5014089;28;20237;-90
2024/02/27 11:13:02;;;;;;;9.75;8.05;;;;;;;;;;5013923;28;20728;-90
2024/02/27 11:15:31;;;;;;;9.27;8.25;;;;;;;;;;5013893;28;20234;-89
2024/02/27 11:18:02;;;;;;;9.90;7.97;;;;;;;;;;5014989;28;20199;-91
2024/02/27 11:20:30;;;;;;;9.80;8.80;;;;;;;;;;5014813;28;20203;-91
2024/02/27 11:22:58;;;;;;;9.07;8.05;;;;;;;;;;5013864;28;20310;-91
2024/02/27 11:25:27;;;;;;;8.18;7.35;;;;;;;;;;5013947;28;20310;-90
2024/02/27 11:27:57;;;;;;;8.45;7.30;;;;;;;;;;5013686;28;20256;-91
2024/02/27 11:30:26;;;;;;;9.73;8.20;;;;;;;;;;5013915;28;20330;-90
2024/02/27 11:32:54;;;;;;;8.13;7.32;;;;;;;;;;5013598;28;20286;-90
2024/02/27 11:35:24;;;;;;;8.25;7.28;;;;;;;;;;5013617;28;20310;-91
2024/02/27 11:37:52;;;;;;;8.75;7.85;;;;;;;;;;5017474;28;20211;-91
2024/02/27 11:40:47;;;;;;;7.65;6.95;;;;;;;;;;5020349;28;20213;-91
2024/02/27 11:43:15;;;;;;;9.50;8.43;;;;;;;;;;5013312;28;20199;-92
2024/02/27 11:45:44;;;;;;;7.25;6.55;;;;;;;;;;5013898;28;20318;-92
2024/02/27 11:48:11;;;;;;;7.78;6.97;;;;;;;;;;5015349;28;20202;-92
2024/02/27 11:50:49;;;;;;;8.23;7.35;;;;;;;;;;5013450;28;20309;-92
2024/02/27 11:53:35;;;;;;;8.20;7.28;;;;;;;;;;5013211;28;20204;-91
2024/02/27 11:56:03;;;;;;;8.85;7.93;;;;;;;;;;5109835;22;20221;-95
2024/02/27 11:58:31;;;;;;;8.00;6.70;;;;;;;;;;5039448;28;20199;-94
2024/02/27 12:01:00;;;;;;;7.90;6.28;;;;;;;;;;5039396;28;20171;-94
2024/02/27 12:03:28;;;;;;;9.05;7.78;;;;;;;;;;5039236;28;20214;-95
2024/02/27 12:06:05;;;;;;;7.50;6.75;;;;;;;;;;5039389;28;20190;-93
2024/02/27 12:08:32;;;;;;;8.30;6.40;;;;;;;;;;5039317;28;20171;-94
2024/02/27 12:11:00;;;;;;;6.93;6.22;;;;;;;;;;5039236;28;20306;-94
2024/02/27 12:13:28;;;;;;;8.50;7.03;;;;;;;;;;5039100;28;20175;-95
2024/02/27 12:15:57;;;;;;;8.60;7.30;;;;;;;;;;5039210;28;20171;-94
2024/02/27 12:18:26;;;;;;;8.32;7.38;;;;;;;;;;5039080;28;20191;-95
2024/02/27 12:20:55;;;;;;;7.50;6.68;;;;;;;;;;5039181;28;20171;-95
2024/02/27 12:23:23;;;;;;;7.40;6.63;;;;;;;;;;5038936;28;20183;-94
2024/02/27 12:25:51;;;;;;;7.70;6.57;;;;;;;;;;5039079;28;20175;-95
2024/02/27 12:28:18;;;;;;;6.90;6.20;;;;;;;;;;5039095;28;20310;-95
2024/02/27 12:30:49;;;;;;;7.05;6.18;;;;;;;;;;5039019;28;20198;-94
2024/02/27 12:33:19;;;;;;;8.05;7.25;;;;;;;;;;5038431;28;20175;-94
2024/02/27 12:35:48;;;;;;;8.25;6.68;;;;;;;;;;5039045;28;20182;-95
2024/02/27 12:38:16;;;;;;;7.22;6.35;;;;;;;;;;5038728;28;20180;-94
2024/02/27 12:40:44;;;;;;;6.43;5.78;;;;;;;;;;5038884;28;20174;-94
2024/02/27 12:43:12;;;;;;;6.40;5.65;;;;;;;;;;5038792;28;20175;-94
2024/02/27 12:45:40;;;;;;;6.00;5.40;;;;;;;;;;5038832;28;20175;-94
2024/02/27 12:48:08;;;;;;;7.03;6.15;;;;;;;;;;5038865;28;20175;-94
2024/02/27 12:50:36;;;;;;;6.38;5.70;;;;;;;;;;5038774;28;20218;-93
2024/02/27 12:53:05;;;;;;;6.07;5.45;;;;;;;;;;5038732;28;20175;-94
2024/02/27 12:55:36;;;;;;;7.78;6.97;;;;;;;;;;5038663;28;20202;-95
2024/02/27 12:58:04;;;;;;;8.23;7.43;;;;;;;;;;5037985;28;20187;-95
2024/02/27 13:00:32;;;;;;;6.63;6.03;;;;;;;;;;5037392;28;20193;-95
2024/02/27 13:03:00;;;;;;;8.77;6.90;;;;;;;;;;5037278;28;20188;-92
2024/02/27 13:05:28;;;;;;;7.03;5.90;;;;;;;;;;5037353;28;20190;-93
2024/02/27 13:07:57;;;;;;;7.35;5.80;;;;;;;;;;5037280;28;20187;-93
2024/02/27 13:10:26;;;;;;;6.82;6.13;;;;;;;;;;5037195;28;20219;-94
2024/02/27 13:13:10;;;;;;;7.68;6.20;;;;;;;;;;5037116;28;20231;-93
2024/02/27 13:15:38;;;;;;;7.40;6.70;;;;;;;;;;5037031;28;20199;-93
2024/02/27 13:18:06;;;;;;;6.45;5.72;;;;;;;;;;5037217;28;20198;-91
2024/02/27 13:20:40;;;;;;;6.72;6.10;;;;;;;;;;5037216;28;20202;-94
2024/02/27 13:23:12;;;;;;;7.18;6.50;;;;;;;;;;5036703;28;20190;-95
2024/02/27 13:25:42;;;;;;;7.85;6.55;;;;;;;;;;5037131;28;20200;-93
2024/02/27 13:28:15;;;;;;;7.32;6.63;;;;;;;;;;5037108;28;20283;-95
2024/02/27 13:30:59;;;;;;;7.90;7.10;;;;;;;;;;5037007;28;20282;-94
2024/02/27 13:33:30;;;;;;;6.03;5.43;;;;;;;;;;5037043;28;20227;-94
2024/02/27 13:36:04;;;;;;;5.30;4.80;;;;;;;;;;5036980;28;20227;-93
2024/02/27 13:38:44;;;;;;;7.03;6.32;;;;;;;;;;5036976;28;20182;-94
2024/02/27 13:41:17;;;;;;;7.88;7.07;;;;;;;;;;5037032;28;20198;-95
2024/02/27 13:43:48;;;;;;;7.85;7.13;;;;;;;;;;5037162;28;20176;-94
2024/02/27 13:46:16;;;;;;;7.93;6.05;;;;;;;;;;5039542;28;20211;-95
2024/02/27 13:48:44;;;;;;;8.00;7.30;;;;;;;;;;5040501;28;20247;-94
2024/02/27 13:51:17;;;;;;;7.80;7.00;;;;;;;;;;5040168;28;20206;-95
2024/02/27 13:53:45;;;;;;;7.25;6.38;;;;;;;;;;5040438;28;20183;-94
2024/02/27 13:56:18;;;;;;;6.50;5.35;;;;;;;;;;5040233;28;20205;-94
2024/02/27 13:58:46;;;;;;;5.60;5.10;;;;;;;;;;5040391;28;20203;-95
2024/02/27 14:01:14;;;;;;;6.18;5.60;;;;;;;;;;5040128;28;20175;-94
2024/02/27 14:03:42;;;;;;;7.78;6.45;;;;;;;;;;5040116;28;20206;-93
2024/02/27 14:06:09;;;;;;;6.20;5.60;;;;;;;;;;5040105;28;20241;-92
2024/02/27 14:08:42;;;;;;;6.93;6.22;;;;;;;;;;5040264;28;20195;-95
2024/02/27 14:11:10;;;;;;;7.55;6.75;;;;;;;;;;5040099;28;20213;-94
2024/02/27 14:14:01;;;;;;;6.70;5.93;;;;;;;;;;5039953;28;20202;-92
2024/02/27 14:16:31;;;;;;;9.50;6.65;;;;;;;;;;5039833;28;20206;-94
2024/02/27 14:19:04;;;;;;;6.80;6.20;;;;;;;;;;5040097;28;20186;-94
2024/02/27 14:21:32;;;;;;;7.10;6.07;;;;;;;;;;5039875;28;20180;-94
2024/02/27 14:24:00;;;;;;;8.27;7.40;;;;;;;;;;5039916;28;20180;-92
2024/02/27 14:26:28;;;;;;;7.15;6.38;;;;;;;;;;5039813;28;20207;-94
2024/02/27 14:28:58;;;;;;;7.35;6.20;;;;;;;;;;5039661;28;20187;-93
2024/02/27 14:31:27;;;;;;;6.60;6.00;;;;;;;;;;5039692;28;20199;-93
2024/02/27 14:34:04;;;;;;;7.47;6.75;;;;;;;;;;5039759;28;20210;-93
2024/02/27 14:36:40;;;;;;;7.25;5.50;;;;;;;;;;5039511;28;20202;-94
2024/02/27 14:39:08;;;;;;;7.35;5.93;;;;;;;;;;5039615;28;20189;-94
2024/02/27 14:41:42;;;;;;;7.30;6.45;;;;;;;;;;5039353;28;20179;-95
2024/02/27 14:44:31;;;;;;;6.57;5.95;;;;;;;;;;5039507;28;20187;-94
2024/02/27 14:47:07;;;;;;;6.03;5.45;;;;;;;;;;5039190;28;20195;-94